sensor_id;sensor_type;location;lat;lon;timestamp;pressure;altitude;pressure_sealevel;temperature;humidity
51807;BME280;37865;51.304;9.536;2023-07-22T00:00:46;99773.00;;;12.72;100.00
51807;BME280;37865;51.304;9.536;2023-07-22T00:03:11;99773.53;;;12.64;100.00
51807;BME280;37865;51.304;9.536;2023-07-22T00:05:36;99770.19;;;12.52;100.00
51807;BME280;37865;51.304;9.536;2023-07-22T00:08:02;99774.28;;;12.44;100.00
51807;BME280;37865;51.304;9.536;2023-07-22T00:10:27;99773.41;;;12.39;100.00
51807;BME280;37865;51.304;9.536;2023-07-22T00:12:52;99771.75;;;12.33;100.00
51807;BME280;37865;51.304;9.536;2023-07-22T00:15:17;99775.53;;;12.27;100.00
51807;BME280;37865;51.304;9.536;2023-07-22T00:17:45;99769.47;;;12.20;100.00
51807;BME280;37865;51.304;9.536;2023-07-22T00:20:12;99780.13;;;12.11;100.00
51807;BME280;37865;51.304;9.536;2023-07-22T00:22:38;99773.75;;;12.00;100.00
51807;BME280;37865;51.304;9.536;2023-07-22T00:25:14;99770.69;;;11.92;100.00
51807;BME280;37865;51.304;9.536;2023-07-22T00:27:41;99772.25;;;11.83;100.00
51807;BME280;37865;51.304;9.536;2023-07-22T00:30:07;99771.69;;;11.76;100.00
51807;BME280;37865;51.304;9.536;2023-07-22T00:32:33;99781.19;;;11.68;100.00
51807;BME280;37865;51.304;9.536;2023-07-22T00:34:59;99781.91;;;11.64;100.00
51807;BME280;37865;51.304;9.536;2023-07-22T00:37:24;99781.91;;;11.59;100.00
51807;BME280;37865;51.304;9.536;2023-07-22T00:39:50;99782.69;;;11.54;100.00
51807;BME280;37865;51.304;9.536;2023-07-22T00:42:15;99785.63;;;11.48;100.00
51807;BME280;37865;51.304;9.536;2023-07-22T00:44:41;99774.91;;;11.41;100.00
51807;BME280;37865;51.304;9.536;2023-07-22T00:47:07;99781.13;;;11.37;100.00
51807;BME280;37865;51.304;9.536;2023-07-22T00:49:34;99781.94;;;11.32;100.00
51807;BME280;37865;51.304;9.536;2023-07-22T00:52:01;99783.78;;;11.26;100.00
51807;BME280;37865;51.304;9.536;2023-07-22T00:54:30;99775.81;;;11.20;100.00
51807;BME280;37865;51.304;9.536;2023-07-22T00:56:56;99779.34;;;11.15;100.00
51807;BME280;37865;51.304;9.536;2023-07-22T00:59:23;99781.50;;;11.13;100.00
51807;BME280;37865;51.304;9.536;2023-07-22T01:01:48;99777.03;;;11.07;100.00
51807;BME280;37865;51.304;9.536;2023-07-22T01:04:15;99780.81;;;11.01;100.00
51807;BME280;37865;51.304;9.536;2023-07-22T01:06:43;99778.03;;;10.96;100.00
51807;BME280;37865;51.304;9.536;2023-07-22T01:09:09;99770.63;;;10.92;100.00
51807;BME280;37865;51.304;9.536;2023-07-22T01:11:34;99772.53;;;10.91;100.00
51807;BME280;37865;51.304;9.536;2023-07-22T01:13:59;99775.50;;;10.90;100.00
51807;BME280;37865;51.304;9.536;2023-07-22T01:16:28;99774.38;;;10.86;100.00
51807;BME280;37865;51.304;9.536;2023-07-22T01:18:54;99771.84;;;10.79;100.00
51807;BME280;37865;51.304;9.536;2023-07-22T01:21:22;99773.44;;;10.75;100.00
51807;BME280;37865;51.304;9.536;2023-07-22T01:23:48;99778.31;;;10.73;100.00
51807;BME280;37865;51.304;9.536;2023-07-22T01:26:13;99781.88;;;10.74;100.00
51807;BME280;37865;51.304;9.536;2023-07-22T01:28:39;99778.31;;;10.73;100.00
51807;BME280;37865;51.304;9.536;2023-07-22T01:31:04;99778.59;;;10.72;100.00
51807;BME280;37865;51.304;9.536;2023-07-22T01:33:31;99784.28;;;10.70;100.00
51807;BME280;37865;51.304;9.536;2023-07-22T01:35:56;99781.81;;;10.69;100.00
51807;BME280;37865;51.304;9.536;2023-07-22T01:38:22;99783.66;;;10.63;100.00
51807;BME280;37865;51.304;9.536;2023-07-22T01:40:47;99791.00;;;10.63;100.00
51807;BME280;37865;51.304;9.536;2023-07-22T01:43:13;99789.03;;;10.58;100.00
51807;BME280;37865;51.304;9.536;2023-07-22T01:45:38;99777.84;;;10.55;100.00
51807;BME280;37865;51.304;9.536;2023-07-22T01:48:05;99781.63;;;10.53;100.00
51807;BME280;37865;51.304;9.536;2023-07-22T01:50:31;99782.19;;;10.56;100.00
51807;BME280;37865;51.304;9.536;2023-07-22T01:52:57;99781.88;;;10.52;100.00
51807;BME280;37865;51.304;9.536;2023-07-22T01:55:22;99784.31;;;10.48;100.00
51807;BME280;37865;51.304;9.536;2023-07-22T01:57:47;99790.03;;;10.47;100.00
51807;BME280;37865;51.304;9.536;2023-07-22T02:00:13;99788.03;;;10.42;100.00
51807;BME280;37865;51.304;9.536;2023-07-22T02:02:41;99786.97;;;10.43;100.00
51807;BME280;37865;51.304;9.536;2023-07-22T02:05:07;99790.25;;;10.45;100.00
51807;BME280;37865;51.304;9.536;2023-07-22T02:07:32;99782.59;;;10.42;100.00
51807;BME280;37865;51.304;9.536;2023-07-22T02:09:57;99798.31;;;10.35;100.00
51807;BME280;37865;51.304;9.536;2023-07-22T02:12:23;99793.03;;;10.29;100.00
51807;BME280;37865;51.304;9.536;2023-07-22T02:14:48;99790.00;;;10.25;100.00
51807;BME280;37865;51.304;9.536;2023-07-22T02:17:13;99779.28;;;10.19;100.00
51807;BME280;37865;51.304;9.536;2023-07-22T02:19:39;99782.75;;;10.14;100.00
51807;BME280;37865;51.304;9.536;2023-07-22T02:22:04;99786.00;;;10.11;100.00
51807;BME280;37865;51.304;9.536;2023-07-22T02:24:30;99785.63;;;10.08;100.00
51807;BME280;37865;51.304;9.536;2023-07-22T02:26:56;99786.44;;;10.08;100.00
51807;BME280;37865;51.304;9.536;2023-07-22T02:29:21;99777.69;;;10.06;100.00
51807;BME280;37865;51.304;9.536;2023-07-22T02:31:46;99792.31;;;10.00;100.00
51807;BME280;37865;51.304;9.536;2023-07-22T02:34:12;99796.06;;;9.94;100.00
51807;BME280;37865;51.304;9.536;2023-07-22T02:36:37;99792.50;;;9.94;100.00
51807;BME280;37865;51.304;9.536;2023-07-22T02:39:02;99799.84;;;9.93;100.00
51807;BME280;37865;51.304;9.536;2023-07-22T02:41:28;99791.09;;;9.91;100.00
51807;BME280;37865;51.304;9.536;2023-07-22T02:43:54;99794.66;;;9.92;100.00
51807;BME280;37865;51.304;9.536;2023-07-22T02:46:19;99802.91;;;9.97;100.00
51807;BME280;37865;51.304;9.536;2023-07-22T02:48:44;99806.44;;;9.97;100.00
51807;BME280;37865;51.304;9.536;2023-07-22T02:51:10;99816.53;;;9.97;100.00
51807;BME280;37865;51.304;9.536;2023-07-22T02:53:38;99813.22;;;9.95;100.00
51807;BME280;37865;51.304;9.536;2023-07-22T02:56:04;99803.06;;;9.90;100.00
51807;BME280;37865;51.304;9.536;2023-07-22T02:58:29;99804.91;;;9.85;100.00
51807;BME280;37865;51.304;9.536;2023-07-22T03:00:55;99806.72;;;9.79;100.00
51807;BME280;37865;51.304;9.536;2023-07-22T03:03:22;99805.81;;;9.73;100.00
51807;BME280;37865;51.304;9.536;2023-07-22T03:05:48;99807.13;;;9.71;100.00
51807;BME280;37865;51.304;9.536;2023-07-22T03:08:13;99813.16;;;9.73;100.00
51807;BME280;37865;51.304;9.536;2023-07-22T03:10:38;99815.03;;;9.72;100.00
51807;BME280;37865;51.304;9.536;2023-07-22T03:13:04;99819.44;;;9.73;100.00
51807;BME280;37865;51.304;9.536;2023-07-22T03:15:29;99811.00;;;9.75;100.00
51807;BME280;37865;51.304;9.536;2023-07-22T03:17:56;99815.63;;;9.74;100.00
51807;BME280;37865;51.304;9.536;2023-07-22T03:20:22;99824.56;;;9.70;100.00
51807;BME280;37865;51.304;9.536;2023-07-22T03:22:48;99822.00;;;9.63;100.00
51807;BME280;37865;51.304;9.536;2023-07-22T03:25:15;99820.31;;;9.62;100.00
51807;BME280;37865;51.304;9.536;2023-07-22T03:27:42;99810.28;;;9.63;100.00
51807;BME280;37865;51.304;9.536;2023-07-22T03:30:09;99823.88;;;9.63;100.00
51807;BME280;37865;51.304;9.536;2023-07-22T03:32:35;99823.31;;;9.61;100.00
51807;BME280;37865;51.304;9.536;2023-07-22T03:35:01;99831.72;;;9.59;100.00
51807;BME280;37865;51.304;9.536;2023-07-22T03:37:29;99828.75;;;9.61;100.00
51807;BME280;37865;51.304;9.536;2023-07-22T03:39:55;99834.78;;;9.63;100.00
51807;BME280;37865;51.304;9.536;2023-07-22T03:42:20;99830.97;;;9.64;100.00
51807;BME280;37865;51.304;9.536;2023-07-22T03:44:45;99845.41;;;9.64;100.00
51807;BME280;37865;51.304;9.536;2023-07-22T03:47:11;99842.94;;;9.63;100.00
51807;BME280;37865;51.304;9.536;2023-07-22T03:49:36;99839.97;;;9.64;100.00
51807;BME280;37865;51.304;9.536;2023-07-22T03:52:02;99845.41;;;9.64;100.00
51807;BME280;37865;51.304;9.536;2023-07-22T03:54:27;99846.25;;;9.65;100.00
51807;BME280;37865;51.304;9.536;2023-07-22T03:56:52;99842.47;;;9.66;100.00
51807;BME280;37865;51.304;9.536;2023-07-22T03:59:17;99839.75;;;9.66;100.00
51807;BME280;37865;51.304;9.536;2023-07-22T04:01:43;99846.81;;;9.67;100.00
51807;BME280;37865;51.304;9.536;2023-07-22T04:04:08;99841.94;;;9.69;100.00
51807;BME280;37865;51.304;9.536;2023-07-22T04:06:33;99849.63;;;9.72;100.00
51807;BME280;37865;51.304;9.536;2023-07-22T04:08:59;99840.69;;;9.77;100.00
51807;BME280;37865;51.304;9.536;2023-07-22T04:11:26;99841.13;;;9.85;100.00
51807;BME280;37865;51.304;9.536;2023-07-22T04:13:51;99832.31;;;9.95;100.00
51807;BME280;37865;51.304;9.536;2023-07-22T04:16:16;99840.88;;;10.03;100.00
51807;BME280;37865;51.304;9.536;2023-07-22T04:18:42;99842.59;;;10.09;100.00
51807;BME280;37865;51.304;9.536;2023-07-22T04:21:07;99839.47;;;10.17;100.00
51807;BME280;37865;51.304;9.536;2023-07-22T04:23:32;99836.59;;;10.24;100.00
51807;BME280;37865;51.304;9.536;2023-07-22T04:25:58;99837.59;;;10.39;100.00
51807;BME280;37865;51.304;9.536;2023-07-22T04:28:23;99827.47;;;10.57;100.00
51807;BME280;37865;51.304;9.536;2023-07-22T04:30:57;99840.41;;;10.66;100.00
51807;BME280;37865;51.304;9.536;2023-07-22T04:33:24;99838.31;;;10.73;100.00
51807;BME280;37865;51.304;9.536;2023-07-22T04:35:50;99839.78;;;10.81;100.00
51807;BME280;37865;51.304;9.536;2023-07-22T04:38:16;99846.94;;;10.87;100.00
51807;BME280;37865;51.304;9.536;2023-07-22T04:40:44;99839.38;;;10.94;100.00
51807;BME280;37865;51.304;9.536;2023-07-22T04:43:10;99848.72;;;10.98;100.00
51807;BME280;37865;51.304;9.536;2023-07-22T04:45:35;99849.84;;;11.02;100.00
51807;BME280;37865;51.304;9.536;2023-07-22T04:48:01;99845.53;;;11.06;100.00
51807;BME280;37865;51.304;9.536;2023-07-22T04:50:27;99836.00;;;11.08;100.00
51807;BME280;37865;51.304;9.536;2023-07-22T04:52:54;99844.00;;;11.15;100.00
51807;BME280;37865;51.304;9.536;2023-07-22T04:55:20;99842.97;;;11.21;100.00
51807;BME280;37865;51.304;9.536;2023-07-22T04:57:45;99839.22;;;11.27;100.00
51807;BME280;37865;51.304;9.536;2023-07-22T05:00:12;99836.53;;;11.32;100.00
51807;BME280;37865;51.304;9.536;2023-07-22T05:02:45;99832.78;;;11.38;100.00
51807;BME280;37865;51.304;9.536;2023-07-22T05:05:12;99837.19;;;11.44;100.00
51807;BME280;37865;51.304;9.536;2023-07-22T05:07:38;99826.31;;;11.49;100.00
51807;BME280;37865;51.304;9.536;2023-07-22T05:10:03;99831.56;;;11.56;100.00
51807;BME280;37865;51.304;9.536;2023-07-22T05:12:29;99837.09;;;11.66;100.00
51807;BME280;37865;51.304;9.536;2023-07-22T05:14:54;99839.16;;;11.75;100.00
51807;BME280;37865;51.304;9.536;2023-07-22T05:17:19;99845.53;;;11.86;100.00
51807;BME280;37865;51.304;9.536;2023-07-22T05:19:45;99851.63;;;11.98;100.00
51807;BME280;37865;51.304;9.536;2023-07-22T05:22:10;99835.28;;;12.08;100.00
51807;BME280;37865;51.304;9.536;2023-07-22T05:24:35;99830.44;;;12.20;100.00
51807;BME280;37865;51.304;9.536;2023-07-22T05:27:01;99831.91;;;12.33;100.00
51807;BME280;37865;51.304;9.536;2023-07-22T05:29:26;99830.59;;;12.45;100.00
51807;BME280;37865;51.304;9.536;2023-07-22T05:31:51;99826.84;;;12.56;100.00
51807;BME280;37865;51.304;9.536;2023-07-22T05:34:17;99834.53;;;12.64;100.00
51807;BME280;37865;51.304;9.536;2023-07-22T05:36:42;99834.28;;;12.71;100.00
51807;BME280;37865;51.304;9.536;2023-07-22T05:39:08;99824.75;;;12.78;100.00
51807;BME280;37865;51.304;9.536;2023-07-22T05:41:33;99842.84;;;12.89;100.00
51807;BME280;37865;51.304;9.536;2023-07-22T05:43:59;99838.25;;;13.00;100.00
51807;BME280;37865;51.304;9.536;2023-07-22T05:46:24;99841.59;;;13.12;100.00
51807;BME280;37865;51.304;9.536;2023-07-22T05:48:50;99840.25;;;13.25;100.00
51807;BME280;37865;51.304;9.536;2023-07-22T05:51:15;99834.78;;;13.35;100.00
51807;BME280;37865;51.304;9.536;2023-07-22T05:53:41;99840.56;;;13.43;100.00
51807;BME280;37865;51.304;9.536;2023-07-22T05:56:07;99842.75;;;13.51;100.00
51807;BME280;37865;51.304;9.536;2023-07-22T05:58:32;99849.06;;;13.62;100.00
51807;BME280;37865;51.304;9.536;2023-07-22T06:00:57;99841.69;;;13.73;100.00
51807;BME280;37865;51.304;9.536;2023-07-22T06:03:23;99850.19;;;13.81;100.00
51807;BME280;37865;51.304;9.536;2023-07-22T06:05:48;99846.91;;;13.89;100.00
51807;BME280;37865;51.304;9.536;2023-07-22T06:08:13;99844.97;;;13.95;100.00
51807;BME280;37865;51.304;9.536;2023-07-22T06:10:42;99855.38;;;14.03;100.00
51807;BME280;37865;51.304;9.536;2023-07-22T06:13:07;99857.56;;;14.16;100.00
51807;BME280;37865;51.304;9.536;2023-07-22T06:15:33;99861.97;;;14.32;100.00
51807;BME280;37865;51.304;9.536;2023-07-22T06:17:59;99851.50;;;14.49;100.00
51807;BME280;37865;51.304;9.536;2023-07-22T06:20:25;99859.41;;;14.66;100.00
51807;BME280;37865;51.304;9.536;2023-07-22T06:22:51;99848.94;;;14.78;100.00
51807;BME280;37865;51.304;9.536;2023-07-22T06:25:16;99856.03;;;14.89;100.00
51807;BME280;37865;51.304;9.536;2023-07-22T06:27:41;99852.69;;;15.02;100.00
51807;BME280;37865;51.304;9.536;2023-07-22T06:30:07;99853.19;;;15.14;100.00
51807;BME280;37865;51.304;9.536;2023-07-22T06:32:34;99856.13;;;15.27;100.00
51807;BME280;37865;51.304;9.536;2023-07-22T06:34:59;99857.13;;;15.42;100.00
51807;BME280;37865;51.304;9.536;2023-07-22T06:37:25;99861.19;;;15.59;100.00
51807;BME280;37865;51.304;9.536;2023-07-22T06:39:51;99860.78;;;15.76;100.00
51807;BME280;37865;51.304;9.536;2023-07-22T06:42:16;99868.19;;;15.80;100.00
51807;BME280;37865;51.304;9.536;2023-07-22T06:44:42;99865.72;;;15.79;100.00
51807;BME280;37865;51.304;9.536;2023-07-22T06:47:08;99864.84;;;15.83;100.00
51807;BME280;37865;51.304;9.536;2023-07-22T06:49:33;99864.75;;;15.93;100.00
51807;BME280;37865;51.304;9.536;2023-07-22T06:51:58;99872.91;;;16.08;100.00
51807;BME280;37865;51.304;9.536;2023-07-22T06:54:24;99875.28;;;16.20;100.00
51807;BME280;37865;51.304;9.536;2023-07-22T06:56:49;99861.13;;;16.32;100.00
51807;BME280;37865;51.304;9.536;2023-07-22T06:59:14;99861.63;;;16.39;97.76
51807;BME280;37865;51.304;9.536;2023-07-22T07:01:39;99867.03;;;16.49;96.45
51807;BME280;37865;51.304;9.536;2023-07-22T07:04:06;99862.50;;;16.63;94.82
51807;BME280;37865;51.304;9.536;2023-07-22T07:06:31;99863.19;;;16.73;93.88
51807;BME280;37865;51.304;9.536;2023-07-22T07:08:59;99863.34;;;16.58;91.05
51807;BME280;37865;51.304;9.536;2023-07-22T07:11:25;99866.81;;;16.40;90.11
51807;BME280;37865;51.304;9.536;2023-07-22T07:13:51;99867.50;;;16.27;89.21
51807;BME280;37865;51.304;9.536;2023-07-22T07:16:26;99872.03;;;16.13;87.03
51807;BME280;37865;51.304;9.536;2023-07-22T07:18:52;99862.19;;;16.07;89.06
51807;BME280;37865;51.304;9.536;2023-07-22T07:21:19;99867.69;;;16.07;89.40
51807;BME280;37865;51.304;9.536;2023-07-22T07:23:45;99863.00;;;16.07;88.77
51807;BME280;37865;51.304;9.536;2023-07-22T07:26:10;99873.06;;;16.22;89.48
51807;BME280;37865;51.304;9.536;2023-07-22T07:28:35;99874.44;;;16.48;88.61
51807;BME280;37865;51.304;9.536;2023-07-22T07:31:01;99869.06;;;16.67;86.44
51807;BME280;37865;51.304;9.536;2023-07-22T07:33:26;99869.75;;;16.77;85.08
51807;BME280;37865;51.304;9.536;2023-07-22T07:35:51;99878.25;;;16.81;81.96
51807;BME280;37865;51.304;9.536;2023-07-22T07:38:17;99871.28;;;16.88;81.78
51807;BME280;37865;51.304;9.536;2023-07-22T07:40:42;99879.78;;;16.92;81.03
51807;BME280;37865;51.304;9.536;2023-07-22T07:43:08;99883.97;;;17.08;81.55
51807;BME280;37865;51.304;9.536;2023-07-22T07:45:33;99877.06;;;17.11;77.44
51807;BME280;37865;51.304;9.536;2023-07-22T07:47:58;99889.34;;;17.18;78.12
51807;BME280;37865;51.304;9.536;2023-07-22T07:50:24;99889.31;;;17.23;77.57
51807;BME280;37865;51.304;9.536;2023-07-22T07:52:49;99888.03;;;17.16;74.75
51807;BME280;37865;51.304;9.536;2023-07-22T07:55:14;99883.28;;;17.21;76.03
51807;BME280;37865;51.304;9.536;2023-07-22T07:57:40;99879.63;;;17.26;75.23
51807;BME280;37865;51.304;9.536;2023-07-22T08:00:05;99883.13;;;17.31;74.65
51807;BME280;37865;51.304;9.536;2023-07-22T08:02:34;99895.97;;;17.41;74.58
51807;BME280;37865;51.304;9.536;2023-07-22T08:04:59;99878.25;;;17.47;74.26
51807;BME280;37865;51.304;9.536;2023-07-22T08:07:25;99887.09;;;17.44;71.88
51807;BME280;37865;51.304;9.536;2023-07-22T08:09:50;99890.38;;;17.46;71.97
51807;BME280;37865;51.304;9.536;2023-07-22T08:12:17;99884.84;;;17.51;71.91
51807;BME280;37865;51.304;9.536;2023-07-22T08:14:43;99887.44;;;17.61;72.17
51807;BME280;37865;51.304;9.536;2023-07-22T08:17:09;99890.03;;;17.71;68.59
51807;BME280;37865;51.304;9.536;2023-07-22T08:19:34;99885.50;;;17.80;68.67
51807;BME280;37865;51.304;9.536;2023-07-22T08:21:59;99881.38;;;17.96;67.37
51807;BME280;37865;51.304;9.536;2023-07-22T08:24:25;99888.28;;;18.12;65.90
51807;BME280;37865;51.304;9.536;2023-07-22T08:26:50;99887.38;;;18.17;65.02
51807;BME280;37865;51.304;9.536;2023-07-22T08:29:15;99874.03;;;18.37;66.56
51807;BME280;37865;51.304;9.536;2023-07-22T08:31:41;99879.44;;;18.75;66.66
51807;BME280;37865;51.304;9.536;2023-07-22T08:34:06;99865.25;;;19.08;64.39
51807;BME280;37865;51.304;9.536;2023-07-22T08:36:31;99867.38;;;19.25;63.05
51807;BME280;37865;51.304;9.536;2023-07-22T08:38:56;99867.50;;;19.34;62.33
51807;BME280;37865;51.304;9.536;2023-07-22T08:41:22;99867.25;;;19.30;59.64
51807;BME280;37865;51.304;9.536;2023-07-22T08:43:50;99866.34;;;19.35;59.65
51807;BME280;37865;51.304;9.536;2023-07-22T08:46:19;99870.84;;;19.31;59.08
51807;BME280;37865;51.304;9.536;2023-07-22T08:48:46;99866.06;;;19.36;58.85
51807;BME280;37865;51.304;9.536;2023-07-22T08:51:16;99869.94;;;19.35;57.76
51807;BME280;37865;51.304;9.536;2023-07-22T08:53:43;99877.19;;;19.45;58.05
51807;BME280;37865;51.304;9.536;2023-07-22T08:56:08;99874.41;;;19.45;57.16
51807;BME280;37865;51.304;9.536;2023-07-22T08:58:34;99868.00;;;19.36;57.10
51807;BME280;37865;51.304;9.536;2023-07-22T09:01:01;99870.44;;;19.37;57.17
51807;BME280;37865;51.304;9.536;2023-07-22T09:03:27;99869.94;;;19.35;57.68
51807;BME280;37865;51.304;9.536;2023-07-22T09:05:53;99862.34;;;19.41;57.55
51807;BME280;37865;51.304;9.536;2023-07-22T09:08:19;99859.50;;;19.68;57.16
51807;BME280;37865;51.304;9.536;2023-07-22T09:10:45;99866.25;;;19.97;55.84
51807;BME280;37865;51.304;9.536;2023-07-22T09:13:11;99859.53;;;20.34;55.24
51807;BME280;37865;51.304;9.536;2023-07-22T09:15:38;99845.75;;;20.82;54.75
51807;BME280;37865;51.304;9.536;2023-07-22T09:18:04;99848.44;;;20.96;53.49
51807;BME280;37865;51.304;9.536;2023-07-22T09:20:30;99849.34;;;21.22;52.72
51807;BME280;37865;51.304;9.536;2023-07-22T09:22:55;99844.66;;;21.48;51.85
51807;BME280;37865;51.304;9.536;2023-07-22T09:25:23;99836.16;;;21.53;52.07
51807;BME280;37865;51.304;9.536;2023-07-22T09:27:59;99839.59;;;21.67;50.98
51807;BME280;37865;51.304;9.536;2023-07-22T09:30:30;99838.31;;;21.82;50.59
51807;BME280;37865;51.304;9.536;2023-07-22T09:33:00;99831.75;;;21.78;50.27
51807;BME280;37865;51.304;9.536;2023-07-22T09:35:49;99832.13;;;21.85;50.46
51807;BME280;37865;51.304;9.536;2023-07-22T09:38:22;99824.78;;;21.89;49.50
51807;BME280;37865;51.304;9.536;2023-07-22T09:40:47;99825.75;;;22.01;49.80
51807;BME280;37865;51.304;9.536;2023-07-22T09:43:13;99824.28;;;22.04;48.90
51807;BME280;37865;51.304;9.536;2023-07-22T09:45:38;99822.00;;;21.97;47.80
51807;BME280;37865;51.304;9.536;2023-07-22T09:48:04;99824.09;;;22.09;47.68
51807;BME280;37865;51.304;9.536;2023-07-22T09:50:31;99813.66;;;22.06;45.89
51807;BME280;37865;51.304;9.536;2023-07-22T09:52:57;99821.66;;;22.07;46.69
51807;BME280;37865;51.304;9.536;2023-07-22T09:55:31;99816.56;;;22.09;45.79
51807;BME280;37865;51.304;9.536;2023-07-22T09:58:02;99817.41;;;22.01;45.02
51807;BME280;37865;51.304;9.536;2023-07-22T10:00:33;99815.41;;;22.19;45.31
51807;BME280;37865;51.304;9.536;2023-07-22T10:03:00;99814.03;;;22.42;45.09
51807;BME280;37865;51.304;9.536;2023-07-22T10:05:26;99813.06;;;22.38;44.64
51807;BME280;37865;51.304;9.536;2023-07-22T10:07:56;99804.78;;;22.21;44.62
51807;BME280;37865;51.304;9.536;2023-07-22T10:10:28;99809.06;;;22.18;46.00
51807;BME280;37865;51.304;9.536;2023-07-22T10:12:55;99812.97;;;22.09;45.23
51807;BME280;37865;51.304;9.536;2023-07-22T10:15:22;99810.41;;;22.04;44.57
51807;BME280;37865;51.304;9.536;2023-07-22T10:17:50;99799.09;;;22.00;44.27
51807;BME280;37865;51.304;9.536;2023-07-22T10:20:16;99803.03;;;22.16;43.76
51807;BME280;37865;51.304;9.536;2023-07-22T10:22:44;99800.34;;;22.37;43.90
51807;BME280;37865;51.304;9.536;2023-07-22T10:25:11;99800.94;;;22.60;42.80
51807;BME280;37865;51.304;9.536;2023-07-22T10:27:37;99799.78;;;22.61;42.48
51807;BME280;37865;51.304;9.536;2023-07-22T10:30:05;99797.44;;;22.71;42.23
51807;BME280;37865;51.304;9.536;2023-07-22T10:32:36;99801.06;;;23.01;41.94
51807;BME280;37865;51.304;9.536;2023-07-22T10:35:02;99800.38;;;23.33;41.39
51807;BME280;37865;51.304;9.536;2023-07-22T10:37:32;99775.44;;;23.45;41.18
51807;BME280;37865;51.304;9.536;2023-07-22T10:39:59;99760.81;;;23.48;40.40
51807;BME280;37865;51.304;9.536;2023-07-22T10:42:25;99779.75;;;23.34;40.17
51807;BME280;37865;51.304;9.536;2023-07-22T10:44:51;99784.00;;;23.32;40.03
51807;BME280;37865;51.304;9.536;2023-07-22T10:47:32;99783.25;;;23.23;40.25
51807;BME280;37865;51.304;9.536;2023-07-22T10:50:05;99783.88;;;23.28;40.11
51807;BME280;37865;51.304;9.536;2023-07-22T10:52:42;99773.06;;;23.35;39.68
51807;BME280;37865;51.304;9.536;2023-07-22T10:55:15;99764.06;;;23.50;39.43
51807;BME280;37865;51.304;9.536;2023-07-22T10:57:51;99776.34;;;23.70;39.11
51807;BME280;37865;51.304;9.536;2023-07-22T11:00:19;99771.41;;;24.08;38.36
51807;BME280;37865;51.304;9.536;2023-07-22T11:02:47;99776.09;;;24.16;38.13
51807;BME280;37865;51.304;9.536;2023-07-22T11:08:14;99767.25;;;23.93;38.10
51807;BME280;37865;51.304;9.536;2023-07-22T11:10:52;99767.94;;;23.78;39.13
51807;BME280;37865;51.304;9.536;2023-07-22T11:13:18;99760.16;;;23.84;37.94
51807;BME280;37865;51.304;9.536;2023-07-22T11:15:47;99765.63;;;24.13;37.86
51807;BME280;37865;51.304;9.536;2023-07-22T11:18:13;99751.34;;;24.15;38.14
51807;BME280;37865;51.304;9.536;2023-07-22T11:20:38;99749.19;;;24.32;37.82
51807;BME280;37865;51.304;9.536;2023-07-22T11:23:03;99744.63;;;24.28;37.81
51807;BME280;37865;51.304;9.536;2023-07-22T11:25:28;99745.25;;;24.01;37.95
51807;BME280;37865;51.304;9.536;2023-07-22T11:27:54;99747.06;;;23.84;38.55
51807;BME280;37865;51.304;9.536;2023-07-22T11:30:19;99739.69;;;23.68;38.69
51807;BME280;37865;51.304;9.536;2023-07-22T11:32:44;99743.50;;;23.63;38.72
51807;BME280;37865;51.304;9.536;2023-07-22T11:35:10;99736.13;;;23.79;39.02
51807;BME280;37865;51.304;9.536;2023-07-22T11:37:35;99741.66;;;23.67;38.66
51807;BME280;37865;51.304;9.536;2023-07-22T11:40:01;99729.44;;;23.60;38.40
51807;BME280;37865;51.304;9.536;2023-07-22T11:42:27;99738.19;;;24.03;38.56
51807;BME280;37865;51.304;9.536;2023-07-22T11:44:53;99731.75;;;24.35;37.82
51807;BME280;37865;51.304;9.536;2023-07-22T11:47:18;99724.94;;;24.45;37.29
51807;BME280;37865;51.304;9.536;2023-07-22T11:49:47;99713.44;;;24.95;36.75
51807;BME280;37865;51.304;9.536;2023-07-22T11:52:17;99712.53;;;25.18;36.20
51807;BME280;37865;51.304;9.536;2023-07-22T11:54:44;99722.47;;;25.04;35.62
51807;BME280;37865;51.304;9.536;2023-07-22T11:57:17;99724.22;;;24.96;35.63
51807;BME280;37865;51.304;9.536;2023-07-22T11:59:44;99716.94;;;24.80;36.28
51807;BME280;37865;51.304;9.536;2023-07-22T12:04:51;99714.03;;;24.76;36.01
51807;BME280;37865;51.304;9.536;2023-07-22T12:07:29;99701.69;;;25.01;36.34
51807;BME280;37865;51.304;9.536;2023-07-22T12:09:57;99695.94;;;25.22;36.00
51807;BME280;37865;51.304;9.536;2023-07-22T12:12:42;99694.19;;;25.57;35.07
51807;BME280;37865;51.304;9.536;2023-07-22T12:15:12;99695.50;;;25.47;33.69
51807;BME280;37865;51.304;9.536;2023-07-22T12:17:56;99711.13;;;25.24;35.10
51807;BME280;37865;51.304;9.536;2023-07-22T12:20:32;99689.69;;;25.52;34.11
51807;BME280;37865;51.304;9.536;2023-07-22T12:22:58;99695.94;;;25.77;33.57
51807;BME280;37865;51.304;9.536;2023-07-22T12:25:24;99698.31;;;25.91;33.11
51807;BME280;37865;51.304;9.536;2023-07-22T12:27:49;99683.38;;;25.99;33.07
51807;BME280;37865;51.304;9.536;2023-07-22T12:30:15;99681.50;;;26.03;33.20
51807;BME280;37865;51.304;9.536;2023-07-22T12:32:41;99689.38;;;26.13;33.39
51807;BME280;37865;51.304;9.536;2023-07-22T12:35:07;99688.41;;;25.93;32.98
51807;BME280;37865;51.304;9.536;2023-07-22T12:37:33;99677.13;;;25.46;33.29
51807;BME280;37865;51.304;9.536;2023-07-22T12:39:58;99687.16;;;25.35;33.67
51807;BME280;37865;51.304;9.536;2023-07-22T12:42:23;99668.34;;;25.60;33.04
51807;BME280;37865;51.304;9.536;2023-07-22T12:44:49;99664.53;;;25.80;33.34
51807;BME280;37865;51.304;9.536;2023-07-22T12:47:14;99663.66;;;26.23;32.62
51807;BME280;37865;51.304;9.536;2023-07-22T12:49:39;99669.66;;;26.72;31.33
51807;BME280;37865;51.304;9.536;2023-07-22T12:52:05;99647.50;;;27.17;30.59
51807;BME280;37865;51.304;9.536;2023-07-22T12:54:37;99648.41;;;27.21;31.15
51807;BME280;37865;51.304;9.536;2023-07-22T12:57:02;99652.69;;;27.34;31.16